createdAt,value
2019-01-25T00:02:29.850Z,3.40
2019-01-25T00:05:00.276Z,3.40
2019-01-25T00:07:33.060Z,3.40
2019-01-25T00:10:04.713Z,3.40
2019-01-25T00:12:35.868Z,3.40
2019-01-25T00:15:07.055Z,3.40
2019-01-25T00:17:36.761Z,3.40
2019-01-25T00:20:08.334Z,3.40
2019-01-25T00:22:38.636Z,3.50
2019-01-25T00:25:08.543Z,3.50
2019-01-25T00:27:39.171Z,3.60
2019-01-25T00:30:12.449Z,3.60
2019-01-25T00:32:45.308Z,3.60
2019-01-25T00:35:21.355Z,3.70
2019-01-25T00:37:52.645Z,3.70
2019-01-25T00:40:24.580Z,3.70
2019-01-25T00:43:02.118Z,3.70
2019-01-25T00:45:34.117Z,3.70
2019-01-25T00:48:09.739Z,3.70
2019-01-25T00:50:42.236Z,3.70
2019-01-25T00:53:12.645Z,3.70
2019-01-25T00:55:48.357Z,3.60
2019-01-25T00:58:21.803Z,3.60
2019-01-25T01:00:51.005Z,3.50
2019-01-25T01:03:21.700Z,3.50
2019-01-25T01:05:51.375Z,3.40
2019-01-25T01:08:23.511Z,3.40
2019-01-25T01:10:55.182Z,3.30
2019-01-25T01:13:26.778Z,3.30
2019-01-25T01:15:56.462Z,3.30
2019-01-25T01:18:26.790Z,3.30
2019-01-25T01:20:56.105Z,3.20
2019-01-25T01:23:26.068Z,3.20
2019-01-25T01:25:57.920Z,3.10
2019-01-25T01:28:28.532Z,3.10
2019-01-25T01:31:00.157Z,3.00
2019-01-25T01:33:30.384Z,3.10
2019-01-25T01:36:00.628Z,3.10
2019-01-25T01:38:31.429Z,3.10
2019-01-25T01:41:03.170Z,3.10
2019-01-25T01:43:32.475Z,3.00
2019-01-25T01:46:04.480Z,3.00
2019-01-25T01:48:34.447Z,2.90
2019-01-25T01:51:04.702Z,2.90
2019-01-25T01:53:35.878Z,2.80
2019-01-25T01:56:08.250Z,2.90
2019-01-25T01:58:38.030Z,2.90
2019-01-25T02:01:08.951Z,2.90
2019-01-25T02:03:39.372Z,2.90
2019-01-25T02:06:11.082Z,2.80
2019-01-25T02:08:40.722Z,2.90
2019-01-25T02:11:11.588Z,2.90
2019-01-25T02:13:41.981Z,2.90
2019-01-25T02:16:11.758Z,2.80
2019-01-25T02:18:41.350Z,2.80
2019-01-25T02:21:14.034Z,2.70
2019-01-25T02:23:45.347Z,2.70
2019-01-25T02:26:15.125Z,2.60
2019-01-25T02:28:45.130Z,2.60
2019-01-25T02:31:15.373Z,2.60
2019-01-25T02:33:44.780Z,2.60
2019-01-25T02:36:14.973Z,2.70
2019-01-25T02:38:46.331Z,2.70
2019-01-25T02:41:16.433Z,2.60
2019-01-25T02:43:46.858Z,2.60
2019-01-25T02:46:16.527Z,2.60
2019-01-25T02:48:45.737Z,2.60
2019-01-25T02:51:15.595Z,2.70
2019-01-25T02:53:44.995Z,2.70
2019-01-25T02:56:15.840Z,2.70
2019-01-25T02:58:44.608Z,2.70
2019-01-25T03:01:16.508Z,2.60
2019-01-25T03:03:46.978Z,2.60
2019-01-25T03:06:18.732Z,2.60
2019-01-25T03:08:50.713Z,2.60
2019-01-25T03:11:21.005Z,2.60
2019-01-25T03:13:50.230Z,2.60
2019-01-25T03:16:20.186Z,2.60
2019-01-25T03:18:50.078Z,2.60
2019-01-25T03:21:21.731Z,2.50
2019-01-25T03:23:52.307Z,2.60
2019-01-25T03:26:23.245Z,2.60
2019-01-25T03:28:54.259Z,2.60
2019-01-25T03:31:24.337Z,2.50
2019-01-25T03:33:54.648Z,2.50
2019-01-25T03:36:25.398Z,2.50
2019-01-25T03:38:55.773Z,2.50
2019-01-25T03:41:25.670Z,2.50
2019-01-25T03:43:55.297Z,2.50
2019-01-25T03:46:26.546Z,2.50
2019-01-25T03:48:58.740Z,2.50
2019-01-25T03:51:28.437Z,2.40
2019-01-25T03:53:57.615Z,2.50
2019-01-25T03:56:28.656Z,2.50
2019-01-25T03:59:01.097Z,2.40
2019-01-25T04:01:31.243Z,2.50
2019-01-25T04:04:01.806Z,2.50
2019-01-25T04:06:31.736Z,2.50
2019-01-25T04:09:04.388Z,2.50
2019-01-25T04:11:35.053Z,2.50
2019-01-25T04:14:08.550Z,2.50
2019-01-25T04:16:37.850Z,2.40
2019-01-25T04:19:08.550Z,2.40
2019-01-25T04:21:40.343Z,2.40
2019-01-25T04:24:12.495Z,2.40
2019-01-25T04:26:41.598Z,2.30
2019-01-25T04:29:11.033Z,2.30
2019-01-25T04:31:41.582Z,2.30
2019-01-25T04:34:12.081Z,2.40
2019-01-25T04:36:42.595Z,2.30
2019-01-25T04:39:11.701Z,2.40
2019-01-25T04:41:41.356Z,2.40
2019-01-25T04:44:11.533Z,2.40
2019-01-25T04:46:41.321Z,2.40
2019-01-25T04:49:12.380Z,2.40
2019-01-25T04:51:42.334Z,2.40
2019-01-25T04:54:13.526Z,2.40
2019-01-25T04:56:45.611Z,2.40
2019-01-25T04:59:16.622Z,2.40
2019-01-25T05:01:47.003Z,2.50
2019-01-25T05:04:17.031Z,2.40
2019-01-25T05:06:47.430Z,2.40
2019-01-25T05:09:17.835Z,2.40
2019-01-25T05:11:48.203Z,2.50
2019-01-25T05:14:19.198Z,2.60
2019-01-25T05:16:48.758Z,2.60
2019-01-25T05:19:18.879Z,2.60
2019-01-25T05:21:49.146Z,2.60
2019-01-25T05:24:21.224Z,2.70
2019-01-25T05:26:57.642Z,2.70
2019-01-25T05:29:55.011Z,2.70
2019-01-25T05:32:25.723Z,2.70
2019-01-25T05:34:57.572Z,2.60
2019-01-25T05:37:28.813Z,2.60
2019-01-25T05:40:00.432Z,2.60
2019-01-25T05:42:31.739Z,2.60
2019-01-25T05:45:10.552Z,2.60
2019-01-25T05:47:43.018Z,2.70
2019-01-25T05:50:13.588Z,2.70
2019-01-25T05:52:45.370Z,2.70
2019-01-25T05:55:20.417Z,2.70
2019-01-25T05:57:55.910Z,2.70
2019-01-25T06:00:31.314Z,2.70
2019-01-25T06:03:11.667Z,2.70
2019-01-25T06:05:42.906Z,2.70
2019-01-25T06:08:31.041Z,2.70
2019-01-25T06:11:06.955Z,2.70
2019-01-25T06:13:38.851Z,2.70
2019-01-25T06:16:09.470Z,2.60
2019-01-25T06:18:39.489Z,2.70
2019-01-25T06:21:10.247Z,2.70
2019-01-25T06:23:40.667Z,2.70
2019-01-25T06:26:13.185Z,2.60
2019-01-25T06:28:46.040Z,2.60
2019-01-25T06:31:19.848Z,2.60
2019-01-25T06:33:49.601Z,2.60
2019-01-25T06:36:19.899Z,2.60
2019-01-25T06:38:50.651Z,2.60
2019-01-25T06:41:20.562Z,2.50
2019-01-25T06:43:49.327Z,2.40
2019-01-25T06:46:20.907Z,2.50
2019-01-25T06:48:52.604Z,2.40
2019-01-25T06:51:23.420Z,2.40
2019-01-25T06:53:52.590Z,2.40
2019-01-25T06:56:22.160Z,2.30
2019-01-25T06:59:08.753Z,2.40
2019-01-25T07:01:46.462Z,2.40
2019-01-25T07:04:16.378Z,2.40
2019-01-25T07:06:47.789Z,2.40
2019-01-25T07:09:19.335Z,2.50
2019-01-25T07:12:36.397Z,2.60
2019-01-25T07:16:03.308Z,2.70
2019-01-25T07:19:13.648Z,2.90
2019-01-25T07:26:14.253Z,3.10
2019-01-25T07:28:48.022Z,3.30
2019-01-25T07:31:18.817Z,3.40
2019-01-25T07:33:48.149Z,3.60
2019-01-25T07:36:18.682Z,3.70
2019-01-25T07:38:48.727Z,3.80
2019-01-25T07:41:18.118Z,3.90
2019-01-25T07:43:48.370Z,3.90
2019-01-25T07:46:17.231Z,4.10
2019-01-25T07:48:47.676Z,4.30
2019-01-25T07:51:17.032Z,4.30
2019-01-25T07:53:46.427Z,4.40
2019-01-25T07:56:18.358Z,4.40
2019-01-25T07:58:48.474Z,4.50
2019-01-25T08:01:18.268Z,4.60
2019-01-25T08:03:47.124Z,4.70
2019-01-25T08:06:17.556Z,4.90
2019-01-25T08:08:46.850Z,4.90
2019-01-25T08:11:16.072Z,5.00
2019-01-25T08:13:45.892Z,5.00
2019-01-25T08:16:17.091Z,5.10
2019-01-25T08:18:46.258Z,5.40
2019-01-25T08:21:15.596Z,5.40
2019-01-25T08:23:46.837Z,5.40
2019-01-25T08:26:15.794Z,5.50
2019-01-25T08:28:46.373Z,5.60
2019-01-25T08:31:16.892Z,5.50
2019-01-25T08:33:46.241Z,5.50
2019-01-25T08:36:16.461Z,5.30
2019-01-25T08:38:46.826Z,5.40
2019-01-25T08:41:17.222Z,5.60
2019-01-25T08:43:48.179Z,5.60
2019-01-25T08:46:17.909Z,5.70
2019-01-25T08:48:48.210Z,5.90
2019-01-25T08:51:19.544Z,6.10
2019-01-25T08:53:51.020Z,6.40
2019-01-25T08:56:22.520Z,6.50
2019-01-25T08:58:52.890Z,6.40
2019-01-25T09:01:23.361Z,6.10
2019-01-25T09:03:53.195Z,6.40
2019-01-25T09:06:23.742Z,6.70
2019-01-25T09:08:53.163Z,6.60
2019-01-25T09:11:22.730Z,6.70
2019-01-25T09:13:52.267Z,6.90
2019-01-25T09:16:24.489Z,6.90
2019-01-25T09:18:53.958Z,6.60
2019-01-25T09:21:22.813Z,6.30
2019-01-25T09:23:52.088Z,6.20
2019-01-25T09:26:21.492Z,6.50
2019-01-25T09:28:50.773Z,5.90
2019-01-25T09:31:19.763Z,5.40
2019-01-25T09:33:49.037Z,5.50
2019-01-25T09:36:18.383Z,5.50
2019-01-25T09:38:49.849Z,5.50
2019-01-25T09:41:20.387Z,5.40
2019-01-25T09:43:50.343Z,5.10
2019-01-25T09:46:21.165Z,5.00
2019-01-25T09:48:51.630Z,5.10
2019-01-25T09:51:20.773Z,5.30
2019-01-25T09:53:50.588Z,5.60
2019-01-25T09:56:21.381Z,5.80
2019-01-25T09:58:51.881Z,5.90
2019-01-25T10:01:21.568Z,5.80
2019-01-25T10:03:51.705Z,5.60
2019-01-25T10:06:22.141Z,5.70
2019-01-25T10:08:52.612Z,5.70
2019-01-25T10:11:21.690Z,5.90
2019-01-25T10:13:50.956Z,6.00
2019-01-25T10:16:20.345Z,5.80
2019-01-25T10:18:51.153Z,5.70
2019-01-25T10:21:20.609Z,5.40
2019-01-25T10:23:49.848Z,5.30
2019-01-25T10:26:20.232Z,5.10
2019-01-25T10:28:50.751Z,5.20
2019-01-25T10:31:20.261Z,5.30
2019-01-25T10:33:51.380Z,5.30
2019-01-25T10:36:20.871Z,5.50
2019-01-25T10:38:49.631Z,5.80
2019-01-25T10:41:19.697Z,5.90
2019-01-25T10:43:50.637Z,6.20
2019-01-25T10:46:21.535Z,6.40
2019-01-25T10:48:51.418Z,6.40
2019-01-25T10:51:20.939Z,6.80
2019-01-25T10:53:50.017Z,7.10
2019-01-25T10:56:20.988Z,7.00
2019-01-25T10:58:51.754Z,7.00
2019-01-25T11:01:23.633Z,7.30
2019-01-25T11:03:53.322Z,7.60
2019-01-25T11:06:24.763Z,7.50
2019-01-25T11:08:54.406Z,7.90
2019-01-25T11:11:24.080Z,8.20
2019-01-25T11:13:54.068Z,8.20
2019-01-25T11:16:23.691Z,8.10
2019-01-25T11:18:52.998Z,8.40
2019-01-25T11:21:25.380Z,7.90
2019-01-25T11:23:54.605Z,7.80
2019-01-25T11:26:24.020Z,8.10
2019-01-25T11:28:52.607Z,8.30
2019-01-25T11:31:22.496Z,7.70
2019-01-25T11:33:52.823Z,7.80
2019-01-25T11:36:24.670Z,7.70
2019-01-25T11:38:54.265Z,8.20
2019-01-25T11:41:23.564Z,7.40
2019-01-25T11:43:53.854Z,7.00
2019-01-25T11:46:23.063Z,7.10
2019-01-25T11:48:54.533Z,7.20
2019-01-25T11:51:24.479Z,7.40
2019-01-25T11:53:53.014Z,7.10
2019-01-25T11:56:22.810Z,7.30
2019-01-25T11:58:52.186Z,7.50
2019-01-25T12:01:21.836Z,7.50
2019-01-25T12:03:51.878Z,7.10
2019-01-25T12:06:24.113Z,7.40
2019-01-25T12:08:53.782Z,7.50
2019-01-25T12:11:23.823Z,7.70
2019-01-25T12:13:53.503Z,7.60
2019-01-25T12:16:22.689Z,7.70
2019-01-25T12:18:52.560Z,7.10
2019-01-25T12:21:24.728Z,6.80
2019-01-25T12:23:56.043Z,6.80
2019-01-25T12:26:26.570Z,7.10
2019-01-25T12:28:56.536Z,7.50
2019-01-25T12:31:25.786Z,7.60
2019-01-25T12:33:56.185Z,7.30
2019-01-25T12:36:25.500Z,7.60
2019-01-25T12:38:54.753Z,7.70
2019-01-25T12:41:25.718Z,7.30
2019-01-25T12:43:57.311Z,6.80
2019-01-25T12:46:26.448Z,6.50
2019-01-25T12:48:55.910Z,6.60
2019-01-25T12:51:51.582Z,6.40
2019-01-25T12:54:22.093Z,6.30
2019-01-25T12:56:52.870Z,6.10
2019-01-25T12:59:23.238Z,6.10
2019-01-25T13:01:53.192Z,6.00
2019-01-25T13:04:24.101Z,5.90
2019-01-25T13:06:53.766Z,5.70
2019-01-25T13:09:23.103Z,5.40
2019-01-25T13:11:53.687Z,5.20
2019-01-25T13:14:23.382Z,5.30
2019-01-25T13:16:56.703Z,5.60
2019-01-25T13:19:26.482Z,5.70
2019-01-25T13:21:56.533Z,5.80
2019-01-25T13:24:27.745Z,6.00
2019-01-25T13:26:57.447Z,6.10
2019-01-25T13:29:29.781Z,6.10
2019-01-25T13:32:02.061Z,6.20
2019-01-25T13:34:32.828Z,6.10
2019-01-25T13:37:02.940Z,6.40
2019-01-25T13:39:32.838Z,6.40
2019-01-25T13:42:02.270Z,6.40
2019-01-25T13:44:31.936Z,6.40
2019-01-25T13:47:01.666Z,6.60
2019-01-25T13:49:30.813Z,6.80
2019-01-25T13:52:02.555Z,7.10
2019-01-25T13:54:35.220Z,6.90
2019-01-25T13:57:21.525Z,7.00
2019-01-25T13:59:51.683Z,7.00
2019-01-25T14:02:22.474Z,6.70
2019-01-25T14:04:52.961Z,6.40
2019-01-25T14:07:22.350Z,6.00
2019-01-25T14:09:52.078Z,6.00
2019-01-25T14:12:23.390Z,6.00
2019-01-25T14:14:55.007Z,6.00
2019-01-25T14:17:25.011Z,5.90
2019-01-25T14:19:54.908Z,5.80
2019-01-25T14:22:24.563Z,5.90
2019-01-25T14:24:56.118Z,5.80
2019-01-25T14:27:26.469Z,6.00
2019-01-25T14:29:55.821Z,6.10
2019-01-25T14:32:27.369Z,6.00
2019-01-25T14:34:56.755Z,5.60
2019-01-25T14:37:27.223Z,5.10
2019-01-25T14:39:58.774Z,5.00
2019-01-25T14:42:29.028Z,5.00
2019-01-25T14:44:58.622Z,4.80
2019-01-25T14:47:28.836Z,4.80
2019-01-25T14:49:57.746Z,4.60
2019-01-25T14:52:28.911Z,4.50
2019-01-25T14:55:00.281Z,4.40
2019-01-25T14:57:29.135Z,4.40
2019-01-25T14:59:59.983Z,4.30
2019-01-25T15:02:29.281Z,4.40
2019-01-25T15:05:00.884Z,4.40
2019-01-25T15:07:32.048Z,4.40
2019-01-25T15:10:02.419Z,4.40
2019-01-25T15:12:33.349Z,4.40
2019-01-25T15:15:04.234Z,4.30
2019-01-25T15:17:36.308Z,4.20
2019-01-25T15:20:10.466Z,4.20
2019-01-25T15:22:39.370Z,4.20
2019-01-25T15:25:09.443Z,4.10
2019-01-25T15:27:39.996Z,4.10
2019-01-25T15:30:16.866Z,4.00
2019-01-25T15:32:47.738Z,4.00
2019-01-25T15:35:19.373Z,4.00
2019-01-25T15:37:48.414Z,3.90
2019-01-25T15:40:18.907Z,3.90
2019-01-25T15:42:47.756Z,3.80
2019-01-25T15:45:20.650Z,3.80
2019-01-25T15:47:50.841Z,3.70
2019-01-25T15:50:26.218Z,3.70
2019-01-25T15:52:56.750Z,3.60
2019-01-25T15:55:27.356Z,3.60
2019-01-25T15:57:58.385Z,3.60
2019-01-25T16:00:31.172Z,3.60
2019-01-25T16:03:00.935Z,3.50
2019-01-25T16:05:32.310Z,3.40
2019-01-25T16:08:01.862Z,3.40
2019-01-25T16:10:32.097Z,3.40
2019-01-25T16:13:04.224Z,3.30
2019-01-25T16:15:34.727Z,3.30
2019-01-25T16:18:04.570Z,3.30
2019-01-25T16:20:34.521Z,3.30
2019-01-25T16:23:04.870Z,3.30
2019-01-25T16:25:37.006Z,3.30
2019-01-25T16:28:09.212Z,3.30
2019-01-25T16:30:39.883Z,3.30
2019-01-25T16:33:11.233Z,3.30
2019-01-25T16:35:41.006Z,3.30
2019-01-25T16:38:11.923Z,3.30
2019-01-25T16:40:43.967Z,3.30
2019-01-25T16:43:14.435Z,3.30
2019-01-25T16:45:45.990Z,3.30
2019-01-25T16:48:15.826Z,3.40
2019-01-25T16:50:44.868Z,3.30
2019-01-25T16:53:15.962Z,3.30
2019-01-25T16:55:45.364Z,3.30
2019-01-25T16:58:15.567Z,3.40
2019-01-25T17:00:51.538Z,3.30
2019-01-25T17:03:23.377Z,3.30
2019-01-25T17:05:53.645Z,3.40
2019-01-25T17:08:23.230Z,3.30
2019-01-25T17:10:54.835Z,3.30
2019-01-25T17:13:25.684Z,3.30
2019-01-25T17:15:55.866Z,3.20
2019-01-25T17:18:26.581Z,3.30
2019-01-25T17:20:57.214Z,3.30
2019-01-25T17:23:27.325Z,3.30
2019-01-25T17:25:58.651Z,3.30
2019-01-25T17:28:29.032Z,3.20
2019-01-25T17:30:59.251Z,3.10
2019-01-25T17:33:31.916Z,3.00
2019-01-25T17:36:02.028Z,3.00
2019-01-25T17:38:32.060Z,3.00
2019-01-25T17:41:01.453Z,3.00
2019-01-25T17:43:31.393Z,3.10
2019-01-25T17:46:01.977Z,3.10
2019-01-25T17:48:34.828Z,3.20
2019-01-25T17:51:04.937Z,3.20
2019-01-25T17:53:33.581Z,3.10
2019-01-25T17:56:03.890Z,3.10
2019-01-25T17:58:34.332Z,3.00
2019-01-25T18:01:05.166Z,3.00
2019-01-25T18:03:36.654Z,3.00
2019-01-25T18:06:07.136Z,2.90
2019-01-25T18:08:37.240Z,2.90
2019-01-25T18:11:07.887Z,2.90
2019-01-25T18:13:38.510Z,2.90
2019-01-25T18:16:08.384Z,2.80
2019-01-25T18:18:39.932Z,2.70
2019-01-25T18:21:10.775Z,2.70
2019-01-25T18:23:41.552Z,2.60
2019-01-25T18:26:21.627Z,2.60
2019-01-25T18:29:09.880Z,2.50
2019-01-25T18:31:42.036Z,2.40
2019-01-25T18:34:11.795Z,2.40
2019-01-25T18:36:42.150Z,2.30
2019-01-25T18:39:12.410Z,2.40
2019-01-25T18:41:42.878Z,2.40
2019-01-25T18:44:12.338Z,2.50
2019-01-25T18:46:43.761Z,2.50
2019-01-25T18:49:16.544Z,2.60
2019-01-25T18:51:47.560Z,2.50
2019-01-25T18:54:18.179Z,2.50
2019-01-25T18:56:51.450Z,2.50
2019-01-25T18:59:21.121Z,2.50
2019-01-25T19:01:51.073Z,2.50
2019-01-25T19:04:21.660Z,2.40
2019-01-25T19:06:52.383Z,2.50
2019-01-25T19:09:25.920Z,2.40
2019-01-25T19:11:57.692Z,2.40
2019-01-25T19:14:26.645Z,2.40
2019-01-25T19:16:56.123Z,2.50
2019-01-25T19:19:27.515Z,2.40
2019-01-25T19:21:59.083Z,2.50
2019-01-25T19:24:32.010Z,2.50
2019-01-25T19:27:00.693Z,2.50
2019-01-25T19:29:32.269Z,2.50
2019-01-25T19:32:01.254Z,2.60
2019-01-25T19:34:30.421Z,2.50
2019-01-25T19:37:00.921Z,2.50
2019-01-25T19:39:33.357Z,2.50
2019-01-25T19:42:04.254Z,2.40
2019-01-25T19:44:35.745Z,2.50
2019-01-25T19:47:06.269Z,2.40
2019-01-25T19:49:39.285Z,2.40
2019-01-25T19:52:10.989Z,2.40
2019-01-25T19:54:43.910Z,2.30
2019-01-25T19:57:14.097Z,2.30
2019-01-25T19:59:44.814Z,2.30
2019-01-25T20:02:15.746Z,2.30
2019-01-25T20:04:46.406Z,2.40
2019-01-25T20:07:17.270Z,2.40
2019-01-25T20:09:48.145Z,2.30
2019-01-25T20:12:20.470Z,2.40
2019-01-25T20:14:51.420Z,2.40
2019-01-25T20:17:22.386Z,2.30
2019-01-25T20:19:51.340Z,2.30
2019-01-25T20:22:22.241Z,2.30
2019-01-25T20:24:52.515Z,2.30
2019-01-25T20:27:22.505Z,2.30
2019-01-25T20:29:52.848Z,2.30
2019-01-25T20:32:24.191Z,2.30
2019-01-25T20:34:57.789Z,2.20
2019-01-25T20:37:28.943Z,2.20
2019-01-25T20:39:59.595Z,2.20
2019-01-25T20:42:30.002Z,2.20
2019-01-25T20:45:00.853Z,2.20
2019-01-25T20:47:33.334Z,2.20
2019-01-25T20:50:05.379Z,2.20
2019-01-25T20:52:35.725Z,2.20
2019-01-25T20:55:17.306Z,2.20
2019-01-25T20:57:49.283Z,2.20
2019-01-25T21:00:30.530Z,2.20
2019-01-25T21:03:00.991Z,2.10
2019-01-25T21:05:33.654Z,2.10
2019-01-25T21:08:06.324Z,2.10
2019-01-25T21:10:38.169Z,2.10
2019-01-25T21:13:11.075Z,2.10
2019-01-25T21:15:41.889Z,2.10
2019-01-25T21:18:11.627Z,2.10
2019-01-25T21:20:47.350Z,2.20
2019-01-25T21:23:18.353Z,2.20
2019-01-25T21:25:49.574Z,2.20
2019-01-25T21:28:21.251Z,2.20
2019-01-25T21:30:58.119Z,2.20
2019-01-25T21:33:27.973Z,2.20
2019-01-25T21:35:58.527Z,2.10
2019-01-25T21:38:28.111Z,2.10
2019-01-25T21:40:59.112Z,2.10
2019-01-25T21:43:29.489Z,2.10
2019-01-25T21:45:59.588Z,2.00
2019-01-25T21:48:34.329Z,2.00
2019-01-25T21:51:05.699Z,2.00
2019-01-25T21:53:36.204Z,1.90
2019-01-25T21:56:06.739Z,1.90
2019-01-25T21:58:38.355Z,2.00
2019-01-25T22:01:13.131Z,2.00
2019-01-25T22:03:43.267Z,2.00
2019-01-25T22:06:14.322Z,1.90
2019-01-25T22:08:48.037Z,2.00
2019-01-25T22:11:17.935Z,1.90
2019-01-25T22:13:52.756Z,1.90
2019-01-25T22:16:19.726Z,1.90
2019-01-25T22:18:49.142Z,1.90
2019-01-25T22:21:19.063Z,2.00
2019-01-25T22:23:50.156Z,2.00
2019-01-25T22:26:20.806Z,2.00
2019-01-25T22:28:52.083Z,2.00
2019-01-25T22:31:23.163Z,1.90
2019-01-25T22:33:52.508Z,1.90
2019-01-25T22:36:24.384Z,1.80
2019-01-25T22:38:54.749Z,1.80
2019-01-25T22:41:23.755Z,1.70
2019-01-25T22:43:53.974Z,1.70
2019-01-25T22:46:24.458Z,1.70
2019-01-25T22:48:54.633Z,1.60
2019-01-25T22:51:24.418Z,1.60
2019-01-25T22:53:54.358Z,1.50
2019-01-25T22:56:24.415Z,1.50
2019-01-25T22:58:55.012Z,1.40
2019-01-25T23:01:31.475Z,1.40
2019-01-25T23:04:34.857Z,1.40
2019-01-25T23:07:16.947Z,1.30
2019-01-25T23:09:51.441Z,1.30
2019-01-25T23:12:21.044Z,1.30
2019-01-25T23:14:50.303Z,1.30
2019-01-25T23:17:21.221Z,1.40
2019-01-25T23:19:50.462Z,1.50
2019-01-25T23:22:20.306Z,1.50
2019-01-25T23:24:50.289Z,1.60
2019-01-25T23:27:19.349Z,1.70
2019-01-25T23:29:49.313Z,1.60
2019-01-25T23:32:19.524Z,1.70
2019-01-25T23:34:49.128Z,1.60
2019-01-25T23:37:20.501Z,1.70
2019-01-25T23:39:50.453Z,1.70
2019-01-25T23:42:20.551Z,1.70
2019-01-25T23:44:51.396Z,1.80
2019-01-25T23:47:21.253Z,1.80
2019-01-25T23:49:54.022Z,1.80
2019-01-25T23:52:24.183Z,1.80
2019-01-25T23:54:54.717Z,1.80
2019-01-25T23:57:25.506Z,1.70
2019-01-25T23:59:54.932Z,1.80
